sensor_id;sensor_type;location;lat;lon;timestamp;temperature;humidity
32522;DHT22;18963;51.504;5.316;2023-01-09T00:01:11;6.20;99.90
32522;DHT22;18963;51.504;5.316;2023-01-09T00:03:36;6.20;99.90
32522;DHT22;18963;51.504;5.316;2023-01-09T00:06:02;6.20;99.90
32522;DHT22;18963;51.504;5.316;2023-01-09T00:08:27;6.10;99.90
32522;DHT22;18963;51.504;5.316;2023-01-09T00:10:53;6.10;99.90
32522;DHT22;18963;51.504;5.316;2023-01-09T00:13:18;6.00;99.90
32522;DHT22;18963;51.504;5.316;2023-01-09T00:15:44;6.00;99.90
32522;DHT22;18963;51.504;5.316;2023-01-09T00:18:09;5.90;99.90
32522;DHT22;18963;51.504;5.316;2023-01-09T00:20:35;5.90;99.90
32522;DHT22;18963;51.504;5.316;2023-01-09T00:23:00;5.80;99.90
32522;DHT22;18963;51.504;5.316;2023-01-09T00:25:26;5.80;99.90
32522;DHT22;18963;51.504;5.316;2023-01-09T00:27:51;5.70;99.90
32522;DHT22;18963;51.504;5.316;2023-01-09T00:30:17;5.70;99.90
32522;DHT22;18963;51.504;5.316;2023-01-09T00:32:42;5.60;99.90
32522;DHT22;18963;51.504;5.316;2023-01-09T00:35:09;5.60;99.90
32522;DHT22;18963;51.504;5.316;2023-01-09T00:37:36;5.50;99.90
32522;DHT22;18963;51.504;5.316;2023-01-09T00:40:02;5.50;99.90
32522;DHT22;18963;51.504;5.316;2023-01-09T00:42:29;5.40;99.90
32522;DHT22;18963;51.504;5.316;2023-01-09T00:44:58;5.40;99.90
32522;DHT22;18963;51.504;5.316;2023-01-09T00:47:27;5.40;99.90
32522;DHT22;18963;51.504;5.316;2023-01-09T00:49:53;5.30;99.90
32522;DHT22;18963;51.504;5.316;2023-01-09T00:52:18;5.30;99.90
32522;DHT22;18963;51.504;5.316;2023-01-09T00:54:45;5.30;99.90
32522;DHT22;18963;51.504;5.316;2023-01-09T00:57:11;5.30;99.90
32522;DHT22;18963;51.504;5.316;2023-01-09T00:59:37;5.20;99.90
32522;DHT22;18963;51.504;5.316;2023-01-09T01:02:02;5.20;99.90
32522;DHT22;18963;51.504;5.316;2023-01-09T01:04:28;5.20;99.90
32522;DHT22;18963;51.504;5.316;2023-01-09T01:07:12;5.20;99.90
32522;DHT22;18963;51.504;5.316;2023-01-09T01:09:56;5.20;99.90
32522;DHT22;18963;51.504;5.316;2023-01-09T01:12:22;5.20;99.90
32522;DHT22;18963;51.504;5.316;2023-01-09T01:14:47;5.10;99.90
32522;DHT22;18963;51.504;5.316;2023-01-09T01:17:13;5.10;99.90
32522;DHT22;18963;51.504;5.316;2023-01-09T01:19:38;5.10;99.90
32522;DHT22;18963;51.504;5.316;2023-01-09T01:22:04;5.10;99.90
32522;DHT22;18963;51.504;5.316;2023-01-09T01:24:29;5.10;99.90
32522;DHT22;18963;51.504;5.316;2023-01-09T01:26:55;5.00;99.90
32522;DHT22;18963;51.504;5.316;2023-01-09T01:29:20;5.00;99.90
32522;DHT22;18963;51.504;5.316;2023-01-09T01:31:46;5.00;99.90
32522;DHT22;18963;51.504;5.316;2023-01-09T01:34:11;5.00;99.90
32522;DHT22;18963;51.504;5.316;2023-01-09T01:36:37;5.00;99.90
32522;DHT22;18963;51.504;5.316;2023-01-09T01:39:02;5.00;99.90
32522;DHT22;18963;51.504;5.316;2023-01-09T01:41:28;4.90;99.90
32522;DHT22;18963;51.504;5.316;2023-01-09T01:43:58;4.90;99.90
32522;DHT22;18963;51.504;5.316;2023-01-09T01:46:24;4.80;99.90
32522;DHT22;18963;51.504;5.316;2023-01-09T01:48:51;4.80;99.90
32522;DHT22;18963;51.504;5.316;2023-01-09T01:51:20;4.80;99.90
32522;DHT22;18963;51.504;5.316;2023-01-09T01:53:49;4.80;99.90
32522;DHT22;18963;51.504;5.316;2023-01-09T01:56:23;4.80;99.90
32522;DHT22;18963;51.504;5.316;2023-01-09T01:58:54;4.70;99.90
32522;DHT22;18963;51.504;5.316;2023-01-09T02:01:22;4.70;99.90
32522;DHT22;18963;51.504;5.316;2023-01-09T02:03:48;4.70;99.90
32522;DHT22;18963;51.504;5.316;2023-01-09T02:06:14;4.70;99.90
32522;DHT22;18963;51.504;5.316;2023-01-09T02:08:40;4.70;99.90
32522;DHT22;18963;51.504;5.316;2023-01-09T02:11:06;4.70;99.90
32522;DHT22;18963;51.504;5.316;2023-01-09T02:13:32;4.60;99.90
32522;DHT22;18963;51.504;5.316;2023-01-09T02:34:14;4.50;99.90
32522;DHT22;18963;51.504;5.316;2023-01-09T02:36:51;4.50;99.90
32522;DHT22;18963;51.504;5.316;2023-01-09T02:44:23;4.40;99.90
32522;DHT22;18963;51.504;5.316;2023-01-09T02:47:06;4.40;99.90
32522;DHT22;18963;51.504;5.316;2023-01-09T02:49:33;4.40;99.90
32522;DHT22;18963;51.504;5.316;2023-01-09T02:52:17;4.40;99.90
32522;DHT22;18963;51.504;5.316;2023-01-09T02:54:48;4.30;99.90
32522;DHT22;18963;51.504;5.316;2023-01-09T02:57:20;4.30;99.90
32522;DHT22;18963;51.504;5.316;2023-01-09T03:02:27;4.30;99.90
32522;DHT22;18963;51.504;5.316;2023-01-09T03:07:24;4.30;99.90
32522;DHT22;18963;51.504;5.316;2023-01-09T03:09:51;4.20;99.90
32522;DHT22;18963;51.504;5.316;2023-01-09T03:12:21;4.20;99.90
32522;DHT22;18963;51.504;5.316;2023-01-09T03:14:52;4.20;99.90
32522;DHT22;18963;51.504;5.316;2023-01-09T03:17:20;4.20;99.90
32522;DHT22;18963;51.504;5.316;2023-01-09T03:19:46;4.20;99.90
32522;DHT22;18963;51.504;5.316;2023-01-09T03:22:14;4.20;99.90
32522;DHT22;18963;51.504;5.316;2023-01-09T03:24:39;4.20;99.90
32522;DHT22;18963;51.504;5.316;2023-01-09T03:27:06;4.20;99.90
32522;DHT22;18963;51.504;5.316;2023-01-09T03:29:32;4.20;99.90
32522;DHT22;18963;51.504;5.316;2023-01-09T03:31:57;4.30;99.90
32522;DHT22;18963;51.504;5.316;2023-01-09T03:34:23;4.30;99.90
32522;DHT22;18963;51.504;5.316;2023-01-09T03:36:48;4.30;99.90
32522;DHT22;18963;51.504;5.316;2023-01-09T03:39:14;4.30;99.90
32522;DHT22;18963;51.504;5.316;2023-01-09T03:41:39;4.30;99.90
32522;DHT22;18963;51.504;5.316;2023-01-09T03:44:05;4.30;99.90
32522;DHT22;18963;51.504;5.316;2023-01-09T03:46:30;4.30;99.90
32522;DHT22;18963;51.504;5.316;2023-01-09T03:48:56;4.40;99.90
32522;DHT22;18963;51.504;5.316;2023-01-09T03:51:21;4.40;99.90
32522;DHT22;18963;51.504;5.316;2023-01-09T03:53:47;4.50;99.90
32522;DHT22;18963;51.504;5.316;2023-01-09T03:56:12;4.60;99.90
32522;DHT22;18963;51.504;5.316;2023-01-09T03:58:38;4.60;99.90
32522;DHT22;18963;51.504;5.316;2023-01-09T04:01:04;4.60;99.90
32522;DHT22;18963;51.504;5.316;2023-01-09T04:03:30;4.60;99.90
32522;DHT22;18963;51.504;5.316;2023-01-09T04:05:55;4.60;99.90
32522;DHT22;18963;51.504;5.316;2023-01-09T04:08:21;4.60;99.90
32522;DHT22;18963;51.504;5.316;2023-01-09T04:10:47;4.70;99.90
32522;DHT22;18963;51.504;5.316;2023-01-09T04:13:12;4.70;99.90
32522;DHT22;18963;51.504;5.316;2023-01-09T04:15:38;4.80;99.90
32522;DHT22;18963;51.504;5.316;2023-01-09T04:18:04;4.90;99.90
32522;DHT22;18963;51.504;5.316;2023-01-09T04:20:29;4.90;99.90
32522;DHT22;18963;51.504;5.316;2023-01-09T04:22:55;5.00;99.90
32522;DHT22;18963;51.504;5.316;2023-01-09T04:25:20;5.00;99.90
32522;DHT22;18963;51.504;5.316;2023-01-09T04:27:47;5.00;99.90
32522;DHT22;18963;51.504;5.316;2023-01-09T04:30:13;5.10;99.90
32522;DHT22;18963;51.504;5.316;2023-01-09T04:32:38;5.10;99.90
32522;DHT22;18963;51.504;5.316;2023-01-09T04:35:04;5.20;99.90
32522;DHT22;18963;51.504;5.316;2023-01-09T04:37:29;5.20;99.90
32522;DHT22;18963;51.504;5.316;2023-01-09T04:39:55;5.30;99.90
32522;DHT22;18963;51.504;5.316;2023-01-09T04:42:21;5.30;99.90
32522;DHT22;18963;51.504;5.316;2023-01-09T04:44:47;5.30;99.90
32522;DHT22;18963;51.504;5.316;2023-01-09T04:47:12;5.40;99.90
32522;DHT22;18963;51.504;5.316;2023-01-09T04:49:38;5.40;99.90
32522;DHT22;18963;51.504;5.316;2023-01-09T04:52:03;5.40;99.90
32522;DHT22;18963;51.504;5.316;2023-01-09T04:54:29;5.50;99.90
32522;DHT22;18963;51.504;5.316;2023-01-09T04:56:54;5.50;99.90
32522;DHT22;18963;51.504;5.316;2023-01-09T04:59:20;5.50;99.90
32522;DHT22;18963;51.504;5.316;2023-01-09T05:01:45;5.50;99.90
32522;DHT22;18963;51.504;5.316;2023-01-09T05:04:11;5.50;99.90
32522;DHT22;18963;51.504;5.316;2023-01-09T05:06:38;5.60;99.90
32522;DHT22;18963;51.504;5.316;2023-01-09T05:09:04;5.60;99.90
32522;DHT22;18963;51.504;5.316;2023-01-09T05:11:29;5.60;99.90
32522;DHT22;18963;51.504;5.316;2023-01-09T05:13:55;5.70;99.90
32522;DHT22;18963;51.504;5.316;2023-01-09T05:16:20;5.70;99.90
32522;DHT22;18963;51.504;5.316;2023-01-09T05:18:46;5.70;99.90
32522;DHT22;18963;51.504;5.316;2023-01-09T05:21:11;5.70;99.90
32522;DHT22;18963;51.504;5.316;2023-01-09T05:23:37;5.70;99.90
32522;DHT22;18963;51.504;5.316;2023-01-09T05:26:02;5.80;99.90
32522;DHT22;18963;51.504;5.316;2023-01-09T05:28:31;5.80;99.90
32522;DHT22;18963;51.504;5.316;2023-01-09T05:30:57;5.80;99.90
32522;DHT22;18963;51.504;5.316;2023-01-09T05:33:22;5.80;99.90
32522;DHT22;18963;51.504;5.316;2023-01-09T05:35:48;5.80;99.90
32522;DHT22;18963;51.504;5.316;2023-01-09T05:38:13;5.90;99.90
32522;DHT22;18963;51.504;5.316;2023-01-09T05:40:39;5.90;99.90
32522;DHT22;18963;51.504;5.316;2023-01-09T05:43:04;5.90;99.90
32522;DHT22;18963;51.504;5.316;2023-01-09T05:45:30;6.00;99.90
32522;DHT22;18963;51.504;5.316;2023-01-09T05:47:55;6.00;99.90
32522;DHT22;18963;51.504;5.316;2023-01-09T05:50:21;6.00;99.90
32522;DHT22;18963;51.504;5.316;2023-01-09T05:52:47;6.00;99.90
32522;DHT22;18963;51.504;5.316;2023-01-09T05:55:12;6.00;99.90
32522;DHT22;18963;51.504;5.316;2023-01-09T05:57:38;6.00;99.90
32522;DHT22;18963;51.504;5.316;2023-01-09T06:00:04;6.10;99.90
32522;DHT22;18963;51.504;5.316;2023-01-09T06:02:29;6.10;99.90
32522;DHT22;18963;51.504;5.316;2023-01-09T06:04:55;6.20;99.90
32522;DHT22;18963;51.504;5.316;2023-01-09T06:07:20;6.20;99.90
32522;DHT22;18963;51.504;5.316;2023-01-09T06:09:46;6.20;99.90
32522;DHT22;18963;51.504;5.316;2023-01-09T06:12:11;6.20;99.90
32522;DHT22;18963;51.504;5.316;2023-01-09T06:14:37;6.30;99.90
32522;DHT22;18963;51.504;5.316;2023-01-09T06:17:02;6.30;99.90
32522;DHT22;18963;51.504;5.316;2023-01-09T06:19:28;6.30;99.90
32522;DHT22;18963;51.504;5.316;2023-01-09T06:21:53;6.30;99.90
32522;DHT22;18963;51.504;5.316;2023-01-09T06:24:18;6.40;99.90
32522;DHT22;18963;51.504;5.316;2023-01-09T06:26:44;6.40;99.90
32522;DHT22;18963;51.504;5.316;2023-01-09T06:29:09;6.40;99.90
32522;DHT22;18963;51.504;5.316;2023-01-09T06:31:35;6.40;99.90
32522;DHT22;18963;51.504;5.316;2023-01-09T06:34:00;6.40;99.90
32522;DHT22;18963;51.504;5.316;2023-01-09T06:36:28;6.40;99.90
32522;DHT22;18963;51.504;5.316;2023-01-09T06:38:54;6.50;99.90
32522;DHT22;18963;51.504;5.316;2023-01-09T06:41:20;6.50;99.90
32522;DHT22;18963;51.504;5.316;2023-01-09T06:43:52;6.60;99.90
32522;DHT22;18963;51.504;5.316;2023-01-09T06:46:18;6.60;99.90
32522;DHT22;18963;51.504;5.316;2023-01-09T06:48:43;6.70;99.90
32522;DHT22;18963;51.504;5.316;2023-01-09T06:51:09;6.70;99.90
32522;DHT22;18963;51.504;5.316;2023-01-09T06:53:34;6.70;99.90
32522;DHT22;18963;51.504;5.316;2023-01-09T06:56:00;6.80;99.90
32522;DHT22;18963;51.504;5.316;2023-01-09T06:58:27;6.80;99.90
32522;DHT22;18963;51.504;5.316;2023-01-09T07:00:52;6.80;99.90
32522;DHT22;18963;51.504;5.316;2023-01-09T07:03:19;6.80;99.90
32522;DHT22;18963;51.504;5.316;2023-01-09T07:05:47;6.80;99.90
32522;DHT22;18963;51.504;5.316;2023-01-09T07:08:13;6.80;99.90
32522;DHT22;18963;51.504;5.316;2023-01-09T07:10:39;6.80;99.90
32522;DHT22;18963;51.504;5.316;2023-01-09T07:13:05;6.80;99.90
32522;DHT22;18963;51.504;5.316;2023-01-09T07:15:31;6.80;99.90
32522;DHT22;18963;51.504;5.316;2023-01-09T07:17:56;6.80;99.90
32522;DHT22;18963;51.504;5.316;2023-01-09T07:20:22;6.70;99.90
32522;DHT22;18963;51.504;5.316;2023-01-09T07:22:47;6.70;99.90
32522;DHT22;18963;51.504;5.316;2023-01-09T07:25:13;6.70;99.90
32522;DHT22;18963;51.504;5.316;2023-01-09T07:27:38;6.70;99.90
32522;DHT22;18963;51.504;5.316;2023-01-09T07:30:04;6.70;99.90
32522;DHT22;18963;51.504;5.316;2023-01-09T07:32:30;6.70;99.90
32522;DHT22;18963;51.504;5.316;2023-01-09T07:34:56;6.60;99.90
32522;DHT22;18963;51.504;5.316;2023-01-09T07:37:21;6.60;99.90
32522;DHT22;18963;51.504;5.316;2023-01-09T07:39:47;6.60;99.90
32522;DHT22;18963;51.504;5.316;2023-01-09T07:42:13;6.60;99.90
32522;DHT22;18963;51.504;5.316;2023-01-09T07:44:38;6.60;99.90
32522;DHT22;18963;51.504;5.316;2023-01-09T07:47:04;6.60;99.90
32522;DHT22;18963;51.504;5.316;2023-01-09T07:49:29;6.60;99.90
32522;DHT22;18963;51.504;5.316;2023-01-09T07:51:55;6.60;99.90
32522;DHT22;18963;51.504;5.316;2023-01-09T07:54:21;6.60;99.90
32522;DHT22;18963;51.504;5.316;2023-01-09T07:56:46;6.60;99.90
32522;DHT22;18963;51.504;5.316;2023-01-09T07:59:12;6.60;99.90
32522;DHT22;18963;51.504;5.316;2023-01-09T08:01:37;6.60;99.90
32522;DHT22;18963;51.504;5.316;2023-01-09T08:04:03;6.60;99.90
32522;DHT22;18963;51.504;5.316;2023-01-09T08:06:28;6.60;99.90
32522;DHT22;18963;51.504;5.316;2023-01-09T08:08:54;6.60;99.90
32522;DHT22;18963;51.504;5.316;2023-01-09T08:11:20;6.60;99.90
32522;DHT22;18963;51.504;5.316;2023-01-09T08:13:45;6.60;99.90
32522;DHT22;18963;51.504;5.316;2023-01-09T08:16:11;6.60;99.90
32522;DHT22;18963;51.504;5.316;2023-01-09T08:18:36;6.60;99.90
32522;DHT22;18963;51.504;5.316;2023-01-09T08:21:02;6.60;99.90
32522;DHT22;18963;51.504;5.316;2023-01-09T08:23:27;6.70;99.90
32522;DHT22;18963;51.504;5.316;2023-01-09T08:25:53;6.60;99.90
32522;DHT22;18963;51.504;5.316;2023-01-09T08:28:18;6.60;99.90
32522;DHT22;18963;51.504;5.316;2023-01-09T08:30:44;6.60;99.90
32522;DHT22;18963;51.504;5.316;2023-01-09T08:33:10;6.60;99.90
32522;DHT22;18963;51.504;5.316;2023-01-09T08:35:36;6.60;99.90
32522;DHT22;18963;51.504;5.316;2023-01-09T08:38:02;6.60;99.90
32522;DHT22;18963;51.504;5.316;2023-01-09T08:40:28;6.60;99.90
32522;DHT22;18963;51.504;5.316;2023-01-09T08:42:53;6.60;99.90
32522;DHT22;18963;51.504;5.316;2023-01-09T08:45:37;6.60;99.90
32522;DHT22;18963;51.504;5.316;2023-01-09T08:48:22;6.60;99.90
32522;DHT22;18963;51.504;5.316;2023-01-09T08:50:47;6.60;99.90
32522;DHT22;18963;51.504;5.316;2023-01-09T08:53:13;6.60;99.90
32522;DHT22;18963;51.504;5.316;2023-01-09T08:55:39;6.60;99.90
32522;DHT22;18963;51.504;5.316;2023-01-09T08:58:05;6.60;99.90
32522;DHT22;18963;51.504;5.316;2023-01-09T09:00:30;6.60;99.90
32522;DHT22;18963;51.504;5.316;2023-01-09T09:02:57;6.60;99.90
32522;DHT22;18963;51.504;5.316;2023-01-09T09:05:24;6.60;99.90
32522;DHT22;18963;51.504;5.316;2023-01-09T09:07:50;6.60;99.90
32522;DHT22;18963;51.504;5.316;2023-01-09T09:10:18;6.60;99.90
32522;DHT22;18963;51.504;5.316;2023-01-09T09:12:43;6.60;99.90
32522;DHT22;18963;51.504;5.316;2023-01-09T09:15:09;6.60;99.90
32522;DHT22;18963;51.504;5.316;2023-01-09T09:17:40;6.60;99.90
32522;DHT22;18963;51.504;5.316;2023-01-09T09:20:08;6.60;99.90
32522;DHT22;18963;51.504;5.316;2023-01-09T09:22:33;6.60;99.90
32522;DHT22;18963;51.504;5.316;2023-01-09T09:24:59;6.70;99.90
32522;DHT22;18963;51.504;5.316;2023-01-09T09:27:25;6.70;99.90
32522;DHT22;18963;51.504;5.316;2023-01-09T09:29:50;6.60;99.90
32522;DHT22;18963;51.504;5.316;2023-01-09T09:32:16;6.70;99.90
32522;DHT22;18963;51.504;5.316;2023-01-09T09:34:41;6.70;99.90
32522;DHT22;18963;51.504;5.316;2023-01-09T09:37:07;6.70;99.90
32522;DHT22;18963;51.504;5.316;2023-01-09T09:39:32;6.70;99.90
32522;DHT22;18963;51.504;5.316;2023-01-09T09:52:59;6.80;99.90
32522;DHT22;18963;51.504;5.316;2023-01-09T09:57:53;6.80;99.90
32522;DHT22;18963;51.504;5.316;2023-01-09T10:00:20;6.80;99.90
32522;DHT22;18963;51.504;5.316;2023-01-09T10:02:53;6.90;99.90
32522;DHT22;18963;51.504;5.316;2023-01-09T10:05:22;6.80;99.90
32522;DHT22;18963;51.504;5.316;2023-01-09T10:07:50;6.90;99.90
32522;DHT22;18963;51.504;5.316;2023-01-09T10:12:57;7.00;99.90
32522;DHT22;18963;51.504;5.316;2023-01-09T10:17:58;7.00;99.90
32522;DHT22;18963;51.504;5.316;2023-01-09T10:20:34;7.00;99.90
32522;DHT22;18963;51.504;5.316;2023-01-09T10:26:10;7.00;99.90
32522;DHT22;18963;51.504;5.316;2023-01-09T10:29:36;7.00;99.90
32522;DHT22;18963;51.504;5.316;2023-01-09T10:36:27;7.10;99.90
32522;DHT22;18963;51.504;5.316;2023-01-09T10:38:55;7.10;99.90
32522;DHT22;18963;51.504;5.316;2023-01-09T10:44:13;7.10;99.90
32522;DHT22;18963;51.504;5.316;2023-01-09T10:46:45;7.10;99.90
32522;DHT22;18963;51.504;5.316;2023-01-09T10:49:13;7.20;99.90
32522;DHT22;18963;51.504;5.316;2023-01-09T10:51:43;7.10;99.90
32522;DHT22;18963;51.504;5.316;2023-01-09T10:54:12;7.10;99.90
32522;DHT22;18963;51.504;5.316;2023-01-09T10:56:38;7.20;99.90
32522;DHT22;18963;51.504;5.316;2023-01-09T10:59:05;7.40;99.90
32522;DHT22;18963;51.504;5.316;2023-01-09T11:01:33;7.50;99.90
32522;DHT22;18963;51.504;5.316;2023-01-09T11:04:01;7.50;99.90
32522;DHT22;18963;51.504;5.316;2023-01-09T11:06:36;7.50;99.90
32522;DHT22;18963;51.504;5.316;2023-01-09T11:09:04;7.50;99.90
32522;DHT22;18963;51.504;5.316;2023-01-09T11:11:31;7.50;99.90
32522;DHT22;18963;51.504;5.316;2023-01-09T11:14:12;7.60;99.90
32522;DHT22;18963;51.504;5.316;2023-01-09T11:16:42;7.70;99.90
32522;DHT22;18963;51.504;5.316;2023-01-09T11:19:14;7.70;99.90
32522;DHT22;18963;51.504;5.316;2023-01-09T11:21:40;8.00;99.90
32522;DHT22;18963;51.504;5.316;2023-01-09T11:26:44;8.30;99.90
32522;DHT22;18963;51.504;5.316;2023-01-09T11:29:14;8.30;99.90
32522;DHT22;18963;51.504;5.316;2023-01-09T11:31:40;8.30;99.90
32522;DHT22;18963;51.504;5.316;2023-01-09T11:34:13;8.30;99.90
32522;DHT22;18963;51.504;5.316;2023-01-09T11:36:40;8.40;99.90
32522;DHT22;18963;51.504;5.316;2023-01-09T11:39:13;8.40;99.90
32522;DHT22;18963;51.504;5.316;2023-01-09T11:41:43;8.30;99.90
32522;DHT22;18963;51.504;5.316;2023-01-09T11:44:09;8.20;99.90
32522;DHT22;18963;51.504;5.316;2023-01-09T11:46:38;8.20;99.90
32522;DHT22;18963;51.504;5.316;2023-01-09T11:49:19;8.10;99.90
32522;DHT22;18963;51.504;5.316;2023-01-09T11:52:03;8.10;99.90
32522;DHT22;18963;51.504;5.316;2023-01-09T11:54:30;8.10;99.90
32522;DHT22;18963;51.504;5.316;2023-01-09T11:56:56;8.10;99.90
32522;DHT22;18963;51.504;5.316;2023-01-09T11:59:24;8.00;99.90
32522;DHT22;18963;51.504;5.316;2023-01-09T12:04:36;8.00;99.90
32522;DHT22;18963;51.504;5.316;2023-01-09T12:28:54;7.60;99.90
32522;DHT22;18963;51.504;5.316;2023-01-09T12:33:38;7.40;99.90
32522;DHT22;18963;51.504;5.316;2023-01-09T12:46:54;7.60;99.90
32522;DHT22;18963;51.504;5.316;2023-01-09T12:51:52;7.90;99.90
32522;DHT22;18963;51.504;5.316;2023-01-09T12:57:05;8.00;99.90
32522;DHT22;18963;51.504;5.316;2023-01-09T12:59:40;8.00;99.90
32522;DHT22;18963;51.504;5.316;2023-01-09T13:07:40;8.10;99.90
32522;DHT22;18963;51.504;5.316;2023-01-09T13:12:33;8.20;99.90
32522;DHT22;18963;51.504;5.316;2023-01-09T13:15:00;8.20;99.90
32522;DHT22;18963;51.504;5.316;2023-01-09T13:17:29;8.20;99.90
32522;DHT22;18963;51.504;5.316;2023-01-09T13:19:55;8.20;99.90
32522;DHT22;18963;51.504;5.316;2023-01-09T13:22:22;8.10;99.90
32522;DHT22;18963;51.504;5.316;2023-01-09T13:25:05;8.00;99.90
32522;DHT22;18963;51.504;5.316;2023-01-09T13:27:38;8.00;99.90
32522;DHT22;18963;51.504;5.316;2023-01-09T13:32:48;8.00;99.90
32522;DHT22;18963;51.504;5.316;2023-01-09T13:35:18;8.00;99.90
32522;DHT22;18963;51.504;5.316;2023-01-09T13:37:48;8.10;99.90
32522;DHT22;18963;51.504;5.316;2023-01-09T13:42:42;8.10;99.90
32522;DHT22;18963;51.504;5.316;2023-01-09T13:47:42;8.10;99.90
32522;DHT22;18963;51.504;5.316;2023-01-09T13:52:37;8.10;99.90
32522;DHT22;18963;51.504;5.316;2023-01-09T13:57:44;8.10;99.90
32522;DHT22;18963;51.504;5.316;2023-01-09T14:03:05;8.10;99.90
32522;DHT22;18963;51.504;5.316;2023-01-09T14:08:03;8.10;99.90
32522;DHT22;18963;51.504;5.316;2023-01-09T14:12:59;8.00;99.90
32522;DHT22;18963;51.504;5.316;2023-01-09T14:20:44;8.00;99.90
32522;DHT22;18963;51.504;5.316;2023-01-09T14:23:23;8.00;99.90
32522;DHT22;18963;51.504;5.316;2023-01-09T14:25:50;8.00;99.90
32522;DHT22;18963;51.504;5.316;2023-01-09T14:38:33;8.00;99.90
32522;DHT22;18963;51.504;5.316;2023-01-09T14:43:29;7.90;99.90
32522;DHT22;18963;51.504;5.316;2023-01-09T14:45:57;7.90;99.90
32522;DHT22;18963;51.504;5.316;2023-01-09T14:48:23;7.80;99.90
32522;DHT22;18963;51.504;5.316;2023-01-09T14:50:52;7.80;99.90
32522;DHT22;18963;51.504;5.316;2023-01-09T14:53:21;7.70;99.90
32522;DHT22;18963;51.504;5.316;2023-01-09T14:55:52;7.70;99.90
32522;DHT22;18963;51.504;5.316;2023-01-09T15:01:05;7.60;99.90
32522;DHT22;18963;51.504;5.316;2023-01-09T15:03:45;7.50;99.90
32522;DHT22;18963;51.504;5.316;2023-01-09T15:06:20;7.50;99.90
32522;DHT22;18963;51.504;5.316;2023-01-09T15:08:49;7.40;99.90
32522;DHT22;18963;51.504;5.316;2023-01-09T15:11:15;7.30;99.90
32522;DHT22;18963;51.504;5.316;2023-01-09T15:13:46;7.30;99.90
32522;DHT22;18963;51.504;5.316;2023-01-09T15:16:16;7.20;99.90
32522;DHT22;18963;51.504;5.316;2023-01-09T15:18:42;7.20;99.90
32522;DHT22;18963;51.504;5.316;2023-01-09T15:21:13;7.10;99.90
32522;DHT22;18963;51.504;5.316;2023-01-09T15:23:40;7.00;99.90
32522;DHT22;18963;51.504;5.316;2023-01-09T15:26:13;6.90;99.90
32522;DHT22;18963;51.504;5.316;2023-01-09T15:28:42;6.90;99.90
32522;DHT22;18963;51.504;5.316;2023-01-09T15:31:15;6.80;99.90
32522;DHT22;18963;51.504;5.316;2023-01-09T15:33:42;6.80;99.90
32522;DHT22;18963;51.504;5.316;2023-01-09T15:36:10;6.80;99.90
32522;DHT22;18963;51.504;5.316;2023-01-09T15:38:37;6.80;99.90
32522;DHT22;18963;51.504;5.316;2023-01-09T15:41:08;6.80;99.90
32522;DHT22;18963;51.504;5.316;2023-01-09T15:43:34;6.80;99.90
32522;DHT22;18963;51.504;5.316;2023-01-09T15:46:03;6.80;99.90
32522;DHT22;18963;51.504;5.316;2023-01-09T15:48:34;6.80;99.90
32522;DHT22;18963;51.504;5.316;2023-01-09T15:51:07;6.80;99.90
32522;DHT22;18963;51.504;5.316;2023-01-09T15:53:40;6.80;99.90
32522;DHT22;18963;51.504;5.316;2023-01-09T15:58:33;6.70;99.90
32522;DHT22;18963;51.504;5.316;2023-01-09T16:01:19;6.60;99.90
32522;DHT22;18963;51.504;5.316;2023-01-09T16:03:46;6.50;99.90
32522;DHT22;18963;51.504;5.316;2023-01-09T16:06:30;6.50;99.90
32522;DHT22;18963;51.504;5.316;2023-01-09T16:08:59;6.50;99.90
32522;DHT22;18963;51.504;5.316;2023-01-09T16:11:32;6.50;99.90
32522;DHT22;18963;51.504;5.316;2023-01-09T16:14:40;6.50;99.90
32522;DHT22;18963;51.504;5.316;2023-01-09T16:16:47;6.50;99.90
32522;DHT22;18963;51.504;5.316;2023-01-09T16:19:31;6.50;99.90
32522;DHT22;18963;51.504;5.316;2023-01-09T16:21:57;6.50;99.90
32522;DHT22;18963;51.504;5.316;2023-01-09T16:24:24;6.40;99.90
32522;DHT22;18963;51.504;5.316;2023-01-09T16:26:50;6.40;99.90
32522;DHT22;18963;51.504;5.316;2023-01-09T16:29:26;6.40;99.90
32522;DHT22;18963;51.504;5.316;2023-01-09T16:32:02;6.30;99.90
32522;DHT22;18963;51.504;5.316;2023-01-09T16:34:28;6.30;99.90
32522;DHT22;18963;51.504;5.316;2023-01-09T16:36:54;6.30;99.90
32522;DHT22;18963;51.504;5.316;2023-01-09T16:39:20;6.30;99.90
32522;DHT22;18963;51.504;5.316;2023-01-09T16:41:45;6.30;99.90
32522;DHT22;18963;51.504;5.316;2023-01-09T16:44:29;6.20;99.90
32522;DHT22;18963;51.504;5.316;2023-01-09T16:46:55;6.10;99.90
32522;DHT22;18963;51.504;5.316;2023-01-09T16:49:26;6.10;99.90
32522;DHT22;18963;51.504;5.316;2023-01-09T16:51:52;6.10;99.90
32522;DHT22;18963;51.504;5.316;2023-01-09T16:54:18;6.10;99.90
32522;DHT22;18963;51.504;5.316;2023-01-09T16:56:46;6.10;99.90
32522;DHT22;18963;51.504;5.316;2023-01-09T16:59:14;6.20;99.90
32522;DHT22;18963;51.504;5.316;2023-01-09T17:01:40;6.20;99.90
32522;DHT22;18963;51.504;5.316;2023-01-09T17:04:09;6.20;99.90
32522;DHT22;18963;51.504;5.316;2023-01-09T17:06:35;6.20;99.90
32522;DHT22;18963;51.504;5.316;2023-01-09T17:09:03;6.20;99.90
32522;DHT22;18963;51.504;5.316;2023-01-09T17:11:28;6.30;99.90
32522;DHT22;18963;51.504;5.316;2023-01-09T17:14:01;6.30;99.90
32522;DHT22;18963;51.504;5.316;2023-01-09T17:16:27;6.30;99.90
32522;DHT22;18963;51.504;5.316;2023-01-09T17:18:53;6.30;99.90
32522;DHT22;18963;51.504;5.316;2023-01-09T17:21:22;6.30;99.90
32522;DHT22;18963;51.504;5.316;2023-01-09T17:23:48;6.30;99.90
32522;DHT22;18963;51.504;5.316;2023-01-09T17:26:37;6.30;99.90
32522;DHT22;18963;51.504;5.316;2023-01-09T17:29:21;6.30;99.90
32522;DHT22;18963;51.504;5.316;2023-01-09T17:31:47;6.40;99.90
32522;DHT22;18963;51.504;5.316;2023-01-09T17:34:12;6.40;99.90
32522;DHT22;18963;51.504;5.316;2023-01-09T17:36:38;6.30;99.90
32522;DHT22;18963;51.504;5.316;2023-01-09T17:39:03;6.30;99.90
32522;DHT22;18963;51.504;5.316;2023-01-09T17:41:29;6.30;99.90
32522;DHT22;18963;51.504;5.316;2023-01-09T17:43:55;6.30;99.90
32522;DHT22;18963;51.504;5.316;2023-01-09T17:46:28;6.20;99.90
32522;DHT22;18963;51.504;5.316;2023-01-09T17:48:54;6.10;99.90
32522;DHT22;18963;51.504;5.316;2023-01-09T17:51:20;6.10;99.90
32522;DHT22;18963;51.504;5.316;2023-01-09T17:53:46;6.10;99.90
32522;DHT22;18963;51.504;5.316;2023-01-09T17:56:18;6.00;99.90
32522;DHT22;18963;51.504;5.316;2023-01-09T17:58:44;6.00;99.90
32522;DHT22;18963;51.504;5.316;2023-01-09T18:01:10;5.90;99.90
32522;DHT22;18963;51.504;5.316;2023-01-09T18:03:36;5.90;99.90
32522;DHT22;18963;51.504;5.316;2023-01-09T18:06:01;5.80;99.90
32522;DHT22;18963;51.504;5.316;2023-01-09T18:08:27;5.80;99.90
32522;DHT22;18963;51.504;5.316;2023-01-09T18:10:53;5.70;99.90
32522;DHT22;18963;51.504;5.316;2023-01-09T18:13:18;5.70;99.90
32522;DHT22;18963;51.504;5.316;2023-01-09T18:15:44;5.70;99.90
32522;DHT22;18963;51.504;5.316;2023-01-09T18:18:10;5.70;99.90
32522;DHT22;18963;51.504;5.316;2023-01-09T18:20:40;5.70;99.90
32522;DHT22;18963;51.504;5.316;2023-01-09T18:23:06;5.60;99.90